メインページ
METAR-TAF:

METAR-TAF

空港 :

ミネアポリス・セントポール国際空港

ミネアポリス, ミネソタ州, アメリカ合衆国

緯度: 44-52-59N, 経度: 093-13-44W, 海抜: 256m

現時点の気象観測

当レポートは51分前の08:53(UTC)に作成
北東の風 9kt
気温 9°C
湿度 66%
気圧 1022 hPa
視程: 16.1km
高度6000ftの雲はほとんどない

METAR: KMSP 200853Z 04009KT 10SM FEW060 09/03 A3019 RMK AO2 SLP225 T00890033 53003

時間: 04:44 (09:44 UTC)

予報

当レポートは1時間23分前の08:21(UTC)に作成
予報は20日の 08時(UTC)から 21日の 12時(UTC)まで有効
東/北東の風 12kt
視程: 10km
高度6000ftの千切れ雲あり
20日の 1500時(UTC)から
東/北東の風 9kt
視程: 10km
高度15000ftの千切れ雲あり
21日の 0300時(UTC)から
の風 5kt
視程: 10km
高度20000ftの雲は散在している

TAF: KMSP 200821Z 2008/2112 06012KT P6SM BKN060 FM201500 07009KT P6SM BKN150 FM210300 09005KT P6SM SCT200

4,000以上の空港の気象観測と天気予報(METAR報とTAF報)

利用可能な観測所は地図上に黄色い丸と赤い丸で示す。

丸の上にカーソルを重ねると観測所名を参照できる。

次にクリックすると気象観測と天気予報を参照できる。

マップの切り替え:黒色「×」印の緑ボタンをクリックして拡大、「-」印の緑ボタンをクリックして縮小、緑色の三角印をクリックして隣りの地図に切り替え


METAR-TAF: